PWSweather.com
Personal Weather Stations
Station Observations
WISCHPK61
Green Bay Schmitt Park, Green Bay, WI 54311

Green Bay Schmitt ParkGreen Bay, WI 54311

Lat: 44.514277, Lon: -87.935067

Elevation: 735

Station Type: Acu Rite Pro Weather Center model 02032C

http://greenbayweathercam.com

High Low Average
Temperature 56.2°F13.4°C 21.0°F-6.1°C 34.9°F1.6°C
Dew Point 30.4°F-0.9°C 20.8°F-6.2°C 24.6°F-4.1°C
Winds 3.5 mph 5.6 kmh Calm Calm 1.0 mph S1.6 kmh S
Wind Gusts 4.6 mph7.4 kmh -- 1.0 mph1.6 kmh
Humidity 99% 30% 71%
Pressure 29.36 in994.2 mb 29.24 in990.2 mb -
Precipitation 0.00 in0.0 mm - -
Hour Temp Dew Point Humidity Winds Wind Gusts Pressure Precip Precip Rate Daily Precip Total
12:00 AM 24.3°F-4.3°C 23.8°F-4.6°C 98% Calm Calm -- 29.36 in994.2 mb - 0.00 in0.0 mm 0.00 in0.0 mm
12:15 AM 24.1°F-4.4°C 23.6°F-4.7°C 98% Calm Calm -- 29.36 in994.2 mb - 0.00 in0.0 mm 0.00 in0.0 mm
12:30 AM 23.9°F-4.5°C 23.4°F-4.8°C 98% Calm Calm -- 29.36 in994.2 mb - 0.00 in0.0 mm 0.00 in0.0 mm
12:45 AM 23.6°F-4.7°C 23.1°F-4.9°C 98% Calm Calm -- 29.36 in994.2 mb - 0.00 in0.0 mm 0.00 in0.0 mm
01:00 AM 23.5°F-4.7°C 23.0°F-5.0°C 98% Calm Calm -- 29.36 in994.2 mb - 0.00 in0.0 mm 0.00 in0.0 mm
01:15 AM 23.4°F-4.8°C 22.9°F-5.1°C 98% Calm Calm -- 29.36 in994.2 mb - 0.00 in0.0 mm 0.00 in0.0 mm
01:30 AM 23.3°F-4.8°C 22.8°F-5.1°C 98% Calm Calm -- 29.35 in993.9 mb - 0.00 in0.0 mm 0.00 in0.0 mm
01:45 AM 23.2°F-4.9°C 22.7°F-5.2°C 98% Calm Calm -- 29.34 in993.6 mb - 0.00 in0.0 mm 0.00 in0.0 mm
02:00 AM 23.0°F-5.0°C 22.5°F-5.3°C 98% Calm Calm -- 29.34 in993.6 mb - 0.00 in0.0 mm 0.00 in0.0 mm
02:15 AM 22.8°F-5.1°C 22.3°F-5.4°C 98% Calm Calm -- 29.33 in993.2 mb - 0.00 in0.0 mm 0.00 in0.0 mm
02:30 AM 22.6°F-5.2°C 22.1°F-5.5°C 98% Calm Calm -- 29.32 in992.9 mb - 0.00 in0.0 mm 0.00 in0.0 mm
02:45 AM 22.5°F-5.3°C 22.0°F-5.6°C 98% Calm Calm -- 29.32 in992.9 mb - 0.00 in0.0 mm 0.00 in0.0 mm
03:00 AM 22.5°F-5.3°C 22.0°F-5.6°C 98% Calm Calm -- 29.32 in992.9 mb - 0.00 in0.0 mm 0.00 in0.0 mm
03:15 AM 22.3°F-5.4°C 21.8°F-5.7°C 98% Calm Calm -- 29.31 in992.6 mb - 0.00 in0.0 mm 0.00 in0.0 mm
03:30 AM 22.1°F-5.5°C 21.6°F-5.8°C 98% Calm Calm -- 29.31 in992.6 mb - 0.00 in0.0 mm 0.00 in0.0 mm
03:45 AM 22.1°F-5.5°C 21.6°F-5.8°C 98% Calm Calm -- 29.30 in992.2 mb - 0.00 in0.0 mm 0.00 in0.0 mm
04:00 AM 22.1°F-5.5°C 21.6°F-5.8°C 98% Calm Calm -- 29.29 in991.9 mb - 0.00 in0.0 mm 0.00 in0.0 mm
04:15 AM 22.1°F-5.5°C 21.6°F-5.8°C 98% Calm Calm -- 29.29 in991.9 mb - 0.00 in0.0 mm 0.00 in0.0 mm
04:30 AM 21.9°F-5.6°C 21.4°F-5.9°C 98% Calm Calm -- 29.28 in991.5 mb - 0.00 in0.0 mm 0.00 in0.0 mm
04:45 AM 21.6°F-5.8°C 21.1°F-6.1°C 98% Calm Calm -- 29.28 in991.5 mb - 0.00 in0.0 mm 0.00 in0.0 mm
05:00 AM 21.6°F-5.8°C 21.1°F-6.1°C 98% Calm Calm -- 29.27 in991.2 mb - 0.00 in0.0 mm 0.00 in0.0 mm
05:15 AM 21.4°F-5.9°C 21.2°F-6.0°C 99% Calm Calm -- 29.27 in991.2 mb - 0.00 in0.0 mm 0.00 in0.0 mm
05:30 AM 21.4°F-5.9°C 21.2°F-6.0°C 99% Calm Calm -- 29.27 in991.2 mb - 0.00 in0.0 mm 0.00 in0.0 mm
05:45 AM 21.6°F-5.8°C 21.4°F-5.9°C 99% Calm Calm -- 29.27 in991.2 mb - 0.00 in0.0 mm 0.00 in0.0 mm
06:00 AM 21.4°F-5.9°C 21.2°F-6.0°C 99% Calm Calm -- 29.27 in991.2 mb - 0.00 in0.0 mm 0.00 in0.0 mm
06:15 AM 21.4°F-5.9°C 21.2°F-6.0°C 99% Calm Calm -- 29.27 in991.2 mb - 0.00 in0.0 mm 0.00 in0.0 mm
06:30 AM 21.4°F-5.9°C 21.2°F-6.0°C 99% Calm Calm -- 29.27 in991.2 mb - 0.00 in0.0 mm 0.00 in0.0 mm
06:45 AM 21.0°F-6.1°C 20.8°F-6.2°C 99% Calm Calm -- 29.27 in991.2 mb - 0.00 in0.0 mm 0.00 in0.0 mm
07:00 AM 21.2°F-6.0°C 21.0°F-6.1°C 99% Calm Calm -- 29.27 in991.2 mb - 0.00 in0.0 mm 0.00 in0.0 mm
07:15 AM 21.4°F-5.9°C 21.2°F-6.0°C 99% Calm Calm -- 29.27 in991.2 mb - 0.00 in0.0 mm 0.00 in0.0 mm
07:30 AM 21.6°F-5.8°C 21.4°F-5.9°C 99% Calm Calm -- 29.27 in991.2 mb - 0.00 in0.0 mm 0.00 in0.0 mm
07:45 AM 21.9°F-5.6°C 21.7°F-5.7°C 99% Calm Calm -- 29.27 in991.2 mb - 0.00 in0.0 mm 0.00 in0.0 mm
08:00 AM 22.6°F-5.2°C 22.4°F-5.3°C 99% Calm Calm -- 29.27 in991.2 mb - 0.00 in0.0 mm 0.00 in0.0 mm
08:15 AM 23.7°F-4.6°C 23.5°F-4.7°C 99% Calm Calm -- 29.27 in991.2 mb - 0.00 in0.0 mm 0.00 in0.0 mm
08:30 AM 24.9°F-3.9°C 24.4°F-4.2°C 98% Calm Calm -- 29.28 in991.5 mb - 0.00 in0.0 mm 0.00 in0.0 mm
08:45 AM 27.2°F-2.7°C 25.5°F-3.6°C 93% Calm Calm -- 29.27 in991.2 mb - 0.00 in0.0 mm 0.00 in0.0 mm
09:00 AM 29.1°F-1.6°C 25.7°F-3.5°C 87% Calm Calm -- 29.28 in991.5 mb - 0.00 in0.0 mm 0.00 in0.0 mm
09:15 AM 30.6°F-0.8°C 27.0°F-2.8°C 86% Calm Calm -- 29.29 in991.9 mb - 0.00 in0.0 mm 0.00 in0.0 mm
09:30 AM 33.4°F0.8°C 27.9°F-2.3°C 80% Calm Calm -- 29.29 in991.9 mb - 0.00 in0.0 mm 0.00 in0.0 mm
09:45 AM 35.4°F1.9°C 27.9°F-2.3°C 74% 1.2 mph N1.9 kmh N 2.3 mph3.7 kmh 29.29 in991.9 mb - 0.00 in0.0 mm 0.00 in0.0 mm
10:00 AM 36.7°F2.6°C 27.5°F-2.5°C 69% 2.3 mph NNW3.7 kmh NNW 2.3 mph3.7 kmh 29.29 in991.9 mb - 0.00 in0.0 mm 0.00 in0.0 mm
10:15 AM 37.4°F3.0°C 27.4°F-2.6°C 67% Calm Calm -- 29.30 in992.2 mb - 0.00 in0.0 mm 0.00 in0.0 mm
10:30 AM 37.8°F3.2°C 27.8°F-2.3°C 67% 2.3 mph NW3.7 kmh NW 3.5 mph5.6 kmh 29.29 in991.9 mb - 0.00 in0.0 mm 0.00 in0.0 mm
10:45 AM 37.9°F3.3°C 27.5°F-2.5°C 66% 1.2 mph NNW1.9 kmh NNW 2.3 mph3.7 kmh 29.30 in992.2 mb - 0.00 in0.0 mm 0.00 in0.0 mm
11:00 AM 39.0°F3.9°C 27.8°F-2.3°C 64% Calm Calm -- 29.30 in992.2 mb - 0.00 in0.0 mm 0.00 in0.0 mm
11:15 AM 39.2°F4.0°C 25.6°F-3.6°C 58% 3.5 mph NNW5.6 kmh NNW 2.3 mph3.7 kmh 29.30 in992.2 mb - 0.00 in0.0 mm 0.00 in0.0 mm
11:30 AM 39.4°F4.1°C 25.8°F-3.4°C 58% 2.3 mph NNW3.7 kmh NNW 3.5 mph5.6 kmh 29.29 in991.9 mb - 0.00 in0.0 mm 0.00 in0.0 mm
11:45 AM 41.0°F5.0°C 26.9°F-2.8°C 57% 3.5 mph NW5.6 kmh NW 3.5 mph5.6 kmh 29.29 in991.9 mb - 0.00 in0.0 mm 0.00 in0.0 mm
12:00 PM 42.3°F5.7°C 27.7°F-2.4°C 56% 2.3 mph NW3.7 kmh NW 3.5 mph5.6 kmh 29.29 in991.9 mb - 0.00 in0.0 mm 0.00 in0.0 mm
12:15 PM 44.0°F6.7°C 28.8°F-1.8°C 55% 2.3 mph NNW3.7 kmh NNW 3.5 mph5.6 kmh 29.29 in991.9 mb - 0.00 in0.0 mm 0.00 in0.0 mm
12:30 PM 44.4°F6.9°C 28.8°F-1.8°C 54% 3.5 mph NNW5.6 kmh NNW 3.5 mph5.6 kmh 29.28 in991.5 mb - 0.00 in0.0 mm 0.00 in0.0 mm
12:45 PM 46.6°F8.1°C 30.4°F-0.9°C 53% 2.3 mph N3.7 kmh N 2.3 mph3.7 kmh 29.28 in991.5 mb - 0.00 in0.0 mm 0.00 in0.0 mm
01:00 PM 47.1°F8.4°C 28.4°F-2.0°C 48% 3.5 mph NW5.6 kmh NW 3.5 mph5.6 kmh 29.29 in991.9 mb - 0.00 in0.0 mm 0.00 in0.0 mm
01:15 PM 46.8°F8.2°C 28.1°F-2.2°C 48% 3.5 mph NW5.6 kmh NW 3.5 mph5.6 kmh 29.29 in991.9 mb - 0.00 in0.0 mm 0.00 in0.0 mm
01:30 PM 47.5°F8.6°C 29.7°F-1.3°C 50% 2.3 mph E3.7 kmh E 2.3 mph3.7 kmh 29.29 in991.9 mb - 0.00 in0.0 mm 0.00 in0.0 mm
01:45 PM 48.9°F9.4°C 29.5°F-1.4°C 47% 2.3 mph SSE3.7 kmh SSE 2.3 mph3.7 kmh 29.28 in991.5 mb - 0.00 in0.0 mm 0.00 in0.0 mm
02:00 PM 50.6°F10.3°C 28.9°F-1.7°C 43% 2.3 mph NW3.7 kmh NW 3.5 mph5.6 kmh 29.28 in991.5 mb - 0.00 in0.0 mm 0.00 in0.0 mm
02:15 PM 50.1°F10.1°C 26.7°F-2.9°C 40% 1.2 mph SE1.9 kmh SE 1.2 mph1.9 kmh 29.27 in991.2 mb - 0.00 in0.0 mm 0.00 in0.0 mm
02:30 PM 55.3°F12.9°C 25.9°F-3.4°C 32% 2.3 mph NE3.7 kmh NE 2.3 mph3.7 kmh 29.27 in991.2 mb - 0.00 in0.0 mm 0.00 in0.0 mm
02:45 PM 56.2°F13.4°C 25.1°F-3.8°C 30% 3.5 mph NW5.6 kmh NW 4.6 mph7.4 kmh 29.26 in990.9 mb - 0.00 in0.0 mm 0.00 in0.0 mm
03:00 PM 56.1°F13.4°C 27.4°F-2.6°C 33% 2.3 mph E3.7 kmh E 1.2 mph1.9 kmh 29.26 in990.9 mb - 0.00 in0.0 mm 0.00 in0.0 mm
03:15 PM 55.9°F13.3°C 26.4°F-3.1°C 32% 1.2 mph ESE1.9 kmh ESE 1.2 mph1.9 kmh 29.26 in990.9 mb - 0.00 in0.0 mm 0.00 in0.0 mm
03:30 PM 52.2°F11.2°C 24.7°F-4.1°C 34% 2.3 mph SSE3.7 kmh SSE 2.3 mph3.7 kmh 29.25 in990.5 mb - 0.00 in0.0 mm 0.00 in0.0 mm
03:45 PM 52.0°F11.1°C 23.0°F-5.0°C 32% Calm Calm 1.2 mph1.9 kmh 29.25 in990.5 mb - 0.00 in0.0 mm 0.00 in0.0 mm
04:00 PM 49.3°F9.6°C 22.8°F-5.1°C 35% 1.2 mph E1.9 kmh E 1.2 mph1.9 kmh 29.25 in990.5 mb - 0.00 in0.0 mm 0.00 in0.0 mm
04:15 PM 49.0°F9.4°C 24.5°F-4.2°C 38% 1.2 mph SSE1.9 kmh SSE 1.2 mph1.9 kmh 29.25 in990.5 mb - 0.00 in0.0 mm 0.00 in0.0 mm
04:30 PM 49.2°F9.6°C 24.7°F-4.1°C 38% Calm Calm -- 29.25 in990.5 mb - 0.00 in0.0 mm 0.00 in0.0 mm
04:45 PM 48.7°F9.3°C 24.2°F-4.3°C 38% Calm Calm -- 29.25 in990.5 mb - 0.00 in0.0 mm 0.00 in0.0 mm
05:00 PM 48.2°F9.0°C 23.7°F-4.6°C 38% 1.2 mph WSW1.9 kmh WSW 1.2 mph1.9 kmh 29.25 in990.5 mb - 0.00 in0.0 mm 0.00 in0.0 mm
05:15 PM 47.5°F8.6°C 21.8°F-5.7°C 36% 2.3 mph SE3.7 kmh SE 1.2 mph1.9 kmh 29.25 in990.5 mb - 0.00 in0.0 mm 0.00 in0.0 mm
05:30 PM 46.4°F8.0°C 22.8°F-5.1°C 39% 1.2 mph SSE1.9 kmh SSE 1.2 mph1.9 kmh 29.24 in990.2 mb - 0.00 in0.0 mm 0.00 in0.0 mm
05:45 PM 45.4°F7.4°C 23.0°F-5.0°C 41% 3.5 mph SE5.6 kmh SE 3.5 mph5.6 kmh 29.25 in990.5 mb - 0.00 in0.0 mm 0.00 in0.0 mm
06:00 PM 44.6°F7.0°C 23.5°F-4.7°C 43% 1.2 mph S1.9 kmh S 1.2 mph1.9 kmh 29.25 in990.5 mb - 0.00 in0.0 mm 0.00 in0.0 mm
06:15 PM 43.9°F6.6°C 22.8°F-5.1°C 43% 2.3 mph S3.7 kmh S 2.3 mph3.7 kmh 29.25 in990.5 mb - 0.00 in0.0 mm 0.00 in0.0 mm
06:30 PM 43.5°F6.4°C 23.5°F-4.7°C 45% Calm Calm -- 29.25 in990.5 mb - 0.00 in0.0 mm 0.00 in0.0 mm
06:45 PM 42.3°F5.7°C 23.5°F-4.7°C 47% Calm Calm 1.2 mph1.9 kmh 29.25 in990.5 mb - 0.00 in0.0 mm 0.00 in0.0 mm
07:00 PM 41.2°F5.1°C 23.0°F-5.0°C 48% Calm Calm -- 29.25 in990.5 mb - 0.00 in0.0 mm 0.00 in0.0 mm
07:15 PM 39.9°F4.4°C 23.2°F-4.9°C 51% 2.3 mph S3.7 kmh S 2.3 mph3.7 kmh 29.26 in990.9 mb - 0.00 in0.0 mm 0.00 in0.0 mm
07:30 PM 39.4°F4.1°C 28.6°F-1.9°C 65% 2.3 mph SSE3.7 kmh SSE 2.3 mph3.7 kmh 29.25 in990.5 mb - 0.00 in0.0 mm 0.00 in0.0 mm
07:45 PM 38.4°F3.6°C 28.8°F-1.8°C 68% 2.3 mph SSE3.7 kmh SSE 2.3 mph3.7 kmh 29.26 in990.9 mb - 0.00 in0.0 mm 0.00 in0.0 mm
08:00 PM 37.6°F3.1°C 28.3°F-2.1°C 69% 2.3 mph S3.7 kmh S 2.3 mph3.7 kmh 29.26 in990.9 mb - 0.00 in0.0 mm 0.00 in0.0 mm
08:15 PM 36.9°F2.7°C 27.7°F-2.4°C 69% 2.3 mph SSE3.7 kmh SSE 3.5 mph5.6 kmh 29.26 in990.9 mb - 0.00 in0.0 mm 0.00 in0.0 mm
08:30 PM 36.1°F2.3°C 27.6°F-2.4°C 71% 2.3 mph S3.7 kmh S 1.2 mph1.9 kmh 29.27 in991.2 mb - 0.00 in0.0 mm 0.00 in0.0 mm
08:45 PM 35.4°F1.9°C 27.6°F-2.4°C 73% 1.2 mph S1.9 kmh S 1.2 mph1.9 kmh 29.27 in991.2 mb - 0.00 in0.0 mm 0.00 in0.0 mm
09:00 PM 35.2°F1.8°C 27.4°F-2.6°C 73% 1.2 mph SSE1.9 kmh SSE 1.2 mph1.9 kmh 29.27 in991.2 mb - 0.00 in0.0 mm 0.00 in0.0 mm
09:15 PM 35.4°F1.9°C 26.9°F-2.8°C 71% 1.2 mph S1.9 kmh S 2.3 mph3.7 kmh 29.27 in991.2 mb - 0.00 in0.0 mm 0.00 in0.0 mm
09:30 PM 35.1°F1.7°C 25.2°F-3.8°C 67% 1.2 mph SSE1.9 kmh SSE 1.2 mph1.9 kmh 29.27 in991.2 mb - 0.00 in0.0 mm 0.00 in0.0 mm
09:45 PM 34.7°F1.5°C 24.1°F-4.4°C 65% Calm Calm -- 29.27 in991.2 mb - 0.00 in0.0 mm 0.00 in0.0 mm
10:00 PM 34.5°F1.4°C 23.9°F-4.5°C 65% Calm Calm -- 29.26 in990.9 mb - 0.00 in0.0 mm 0.00 in0.0 mm
10:15 PM 34.5°F1.4°C 23.9°F-4.5°C 65% Calm Calm -- 29.27 in991.2 mb - 0.00 in0.0 mm 0.00 in0.0 mm
10:30 PM 34.2°F1.2°C 24.4°F-4.2°C 67% Calm Calm -- 29.26 in990.9 mb - 0.00 in0.0 mm 0.00 in0.0 mm
10:45 PM 34.0°F1.1°C 24.2°F-4.3°C 67% Calm Calm -- 29.26 in990.9 mb - 0.00 in0.0 mm 0.00 in0.0 mm
11:00 PM 33.4°F0.8°C 24.3°F-4.3°C 69% Calm Calm -- 29.26 in990.9 mb - 0.00 in0.0 mm 0.00 in0.0 mm
11:15 PM 33.0°F0.6°C 23.9°F-4.5°C 69% Calm Calm -- 29.27 in991.2 mb - 0.00 in0.0 mm 0.00 in0.0 mm
11:30 PM 32.7°F0.4°C 24.7°F-4.1°C 72% Calm Calm -- 29.27 in991.2 mb - 0.00 in0.0 mm 0.00 in0.0 mm
11:45 PM 32.5°F0.3°C 24.8°F-4.0°C 73% Calm Calm -- 29.27 in991.2 mb - 0.00 in0.0 mm 0.00 in0.0 mm